HBLPT LPCS-LPCH
Flight info
| Callsign | HBLPT |
|---|---|
| Flight time | 0h 58m |
| Altitude | 20000 |
| Route | CROCA DCT PICHE IFR FTM DCT VIS |
| Aircraft | BE60/L-SDFGRY/C |
Departure
| Time | 2026-05-08 07:35 |
|---|---|
| Airport | Cascais Airport (LPCS) |
Arrival
| Time | 2026-05-08 08:33 |
|---|---|
| Airport | Aerodromo de Chaves (LPCH) |
| Time | Latitude | Longitude | Altitude | Speed | Heading |
|---|---|---|---|---|---|
| 2026-05-08 07:20 | 38.72349 | -9.35305 | 309 ft | 0 kts | 333° |
| 2026-05-08 07:31 | 38.72358 | -9.35311 | 310 ft | 6 kts | 322° |
| 2026-05-08 07:32 | 38.72364 | -9.35358 | 310 ft | 6 kts | 251° |
| 2026-05-08 07:32 | 38.72319 | -9.35377 | 309 ft | 8 kts | 229° |
| 2026-05-08 07:32 | 38.72274 | -9.35432 | 306 ft | 13 kts | 167° |
| 2026-05-08 07:32 | 38.72167 | -9.35399 | 301 ft | 18 kts | 167° |
| 2026-05-08 07:33 | 38.72042 | -9.35352 | 300 ft | 20 kts | 165° |
| 2026-05-08 07:33 | 38.71902 | -9.35297 | 294 ft | 23 kts | 160° |
| 2026-05-08 07:33 | 38.71800 | -9.35261 | 286 ft | 7 kts | 280° |
| 2026-05-08 07:33 | 38.71832 | -9.35271 | 288 ft | 4 kts | 344° |
| 2026-05-08 07:34 | 38.71833 | -9.35271 | 288 ft | 0 kts | 344° |
| 2026-05-08 07:34 | 38.72026 | -9.35342 | 298 ft | 70 kts | 343° |
| 2026-05-08 07:34 | 38.72690 | -9.35586 | 394 ft | 116 kts | 345° |
| 2026-05-08 07:34 | 38.73527 | -9.35882 | 747 ft | 137 kts | 345° |
| 2026-05-08 07:35 | 38.74499 | -9.36187 | 1173 ft | 147 kts | 337° |
| 2026-05-08 07:35 | 38.75228 | -9.37085 | 1168 ft | 151 kts | 285° |
| 2026-05-08 07:35 | 38.75279 | -9.38411 | 1093 ft | 148 kts | 260° |
| 2026-05-08 07:35 | 38.75185 | -9.39715 | 1048 ft | 148 kts | 259° |
| 2026-05-08 07:36 | 38.75075 | -9.41024 | 1066 ft | 148 kts | 260° |
| 2026-05-08 07:36 | 38.74979 | -9.42343 | 1035 ft | 148 kts | 261° |
| 2026-05-08 07:36 | 38.74898 | -9.43661 | 1000 ft | 151 kts | 261° |
| 2026-05-08 07:36 | 38.74792 | -9.45052 | 1006 ft | 163 kts | 260° |
| 2026-05-08 07:37 | 38.74848 | -9.46538 | 1019 ft | 175 kts | 288° |
| 2026-05-08 07:37 | 38.75528 | -9.47877 | 1016 ft | 184 kts | 305° |
| 2026-05-08 07:37 | 38.76337 | -9.49154 | 1010 ft | 190 kts | 313° |
| 2026-05-08 07:37 | 38.77512 | -9.49905 | 992 ft | 193 kts | 351° |
| 2026-05-08 07:38 | 38.78867 | -9.50059 | 976 ft | 193 kts | 0° |
| 2026-05-08 07:38 | 38.80186 | -9.49922 | 984 ft | 193 kts | 9° |
| 2026-05-08 07:38 | 38.81507 | -9.49580 | 994 ft | 194 kts | 15° |
| 2026-05-08 07:38 | 38.82817 | -9.49124 | 999 ft | 197 kts | 17° |
| 2026-05-08 07:39 | 38.84131 | -9.48632 | 989 ft | 196 kts | 18° |
| 2026-05-08 07:39 | 38.85423 | -9.48138 | 1055 ft | 192 kts | 18° |
| 2026-05-08 07:39 | 38.86684 | -9.47652 | 1180 ft | 187 kts | 18° |
| 2026-05-08 07:39 | 38.87943 | -9.47247 | 1318 ft | 189 kts | 14° |
| 2026-05-08 07:40 | 38.89245 | -9.46899 | 1453 ft | 194 kts | 12° |
| 2026-05-08 07:40 | 38.90571 | -9.46584 | 1582 ft | 195 kts | 11° |
| 2026-05-08 07:40 | 38.91913 | -9.46283 | 1704 ft | 197 kts | 10° |
| 2026-05-08 07:40 | 38.93256 | -9.45991 | 1815 ft | 196 kts | 10° |
| 2026-05-08 07:41 | 38.94598 | -9.45701 | 1935 ft | 195 kts | 10° |
| 2026-05-08 07:41 | 38.95953 | -9.45408 | 1975 ft | 200 kts | 10° |
| 2026-05-08 07:41 | 38.97337 | -9.45110 | 1986 ft | 204 kts | 10° |
| 2026-05-08 07:41 | 38.98744 | -9.44809 | 2002 ft | 207 kts | 11° |
| 2026-05-08 07:42 | 39.00170 | -9.44501 | 2009 ft | 208 kts | 10° |
| 2026-05-08 07:42 | 39.01584 | -9.44190 | 2008 ft | 210 kts | 11° |
| 2026-05-08 07:42 | 39.03026 | -9.43876 | 1988 ft | 211 kts | 10° |
| 2026-05-08 07:42 | 39.04488 | -9.43564 | 1978 ft | 210 kts | 10° |
| 2026-05-08 07:43 | 39.05902 | -9.43262 | 1984 ft | 209 kts | 11° |
| 2026-05-08 07:43 | 39.07341 | -9.42958 | 2035 ft | 211 kts | 11° |
| 2026-05-08 07:43 | 39.08793 | -9.42594 | 2050 ft | 214 kts | 11° |
| 2026-05-08 07:43 | 39.10264 | -9.42294 | 2017 ft | 213 kts | 9° |
| 2026-05-08 07:44 | 39.11728 | -9.42003 | 1998 ft | 212 kts | 10° |
| 2026-05-08 07:44 | 39.13171 | -9.41693 | 1992 ft | 209 kts | 12° |
| 2026-05-08 07:44 | 39.14528 | -9.41053 | 1988 ft | 207 kts | 26° |
| 2026-05-08 07:44 | 39.15821 | -9.40265 | 1989 ft | 206 kts | 27° |
| 2026-05-08 07:45 | 39.17107 | -9.39447 | 1995 ft | 206 kts | 28° |
| 2026-05-08 07:45 | 39.18378 | -9.38619 | 1996 ft | 206 kts | 28° |
| 2026-05-08 07:45 | 39.19648 | -9.37791 | 1996 ft | 206 kts | 28° |
| 2026-05-08 07:45 | 39.20920 | -9.36952 | 1995 ft | 206 kts | 28° |
| 2026-05-08 07:46 | 39.22172 | -9.36122 | 1995 ft | 205 kts | 28° |
| 2026-05-08 07:46 | 39.23450 | -9.35322 | 1991 ft | 205 kts | 20° |
| 2026-05-08 07:46 | 39.24838 | -9.34909 | 1996 ft | 206 kts | 11° |
| 2026-05-08 07:46 | 39.26242 | -9.34598 | 1998 ft | 206 kts | 10° |
| 2026-05-08 07:47 | 39.27654 | -9.34317 | 1991 ft | 206 kts | 9° |
| 2026-05-08 07:47 | 39.29072 | -9.34045 | 1996 ft | 206 kts | 8° |
| 2026-05-08 07:47 | 39.30493 | -9.33812 | 1992 ft | 206 kts | 18° |
| 2026-05-08 07:47 | 39.31625 | -9.32789 | 2062 ft | 195 kts | 58° |
| 2026-05-08 07:48 | 39.32272 | -9.31368 | 2559 ft | 177 kts | 66° |
| 2026-05-08 07:48 | 39.32819 | -9.29959 | 2949 ft | 177 kts | 67° |
| 2026-05-08 07:48 | 39.33360 | -9.28536 | 3327 ft | 177 kts | 67° |
| 2026-05-08 07:48 | 39.33911 | -9.27116 | 3707 ft | 177 kts | 66° |
| 2026-05-08 07:49 | 39.34479 | -9.25693 | 4093 ft | 178 kts | 66° |
| 2026-05-08 07:49 | 39.35059 | -9.24270 | 4501 ft | 180 kts | 65° |
| 2026-05-08 07:49 | 39.35656 | -9.22837 | 4932 ft | 185 kts | 66° |
| 2026-05-08 07:49 | 39.36265 | -9.21362 | 5302 ft | 187 kts | 65° |
| 2026-05-08 07:50 | 39.36890 | -9.19888 | 5658 ft | 188 kts | 64° |
| 2026-05-08 07:50 | 39.37521 | -9.18406 | 6038 ft | 189 kts | 64° |
| 2026-05-08 07:50 | 39.38152 | -9.16924 | 6421 ft | 190 kts | 64° |
| 2026-05-08 07:50 | 39.38790 | -9.15426 | 6789 ft | 191 kts | 64° |
| 2026-05-08 07:51 | 39.39419 | -9.13945 | 7151 ft | 192 kts | 63° |
| 2026-05-08 07:51 | 39.40060 | -9.12434 | 7526 ft | 192 kts | 63° |
| 2026-05-08 07:51 | 39.40706 | -9.10912 | 7891 ft | 194 kts | 63° |
| 2026-05-08 07:51 | 39.41362 | -9.09363 | 8195 ft | 199 kts | 62° |
| 2026-05-08 07:52 | 39.42033 | -9.07783 | 8508 ft | 202 kts | 63° |
| 2026-05-08 07:52 | 39.42711 | -9.06180 | 8820 ft | 205 kts | 63° |
| 2026-05-08 07:52 | 39.43397 | -9.04554 | 9141 ft | 207 kts | 63° |
| 2026-05-08 07:52 | 39.44089 | -9.02910 | 9453 ft | 209 kts | 63° |
| 2026-05-08 07:53 | 39.44787 | -9.01255 | 9782 ft | 211 kts | 63° |
| 2026-05-08 07:53 | 39.45492 | -8.99583 | 10075 ft | 212 kts | 62° |
| 2026-05-08 07:53 | 39.46204 | -8.97897 | 10366 ft | 213 kts | 63° |
| 2026-05-08 07:53 | 39.46917 | -8.96205 | 10666 ft | 215 kts | 63° |
| 2026-05-08 07:54 | 39.47637 | -8.94498 | 10959 ft | 217 kts | 62° |
| 2026-05-08 07:54 | 39.48360 | -8.92780 | 11267 ft | 218 kts | 62° |
| 2026-05-08 07:54 | 39.49088 | -8.91050 | 11567 ft | 220 kts | 62° |
| 2026-05-08 07:54 | 39.49822 | -8.89304 | 11871 ft | 222 kts | 61° |
| 2026-05-08 07:55 | 39.50568 | -8.87528 | 12131 ft | 226 kts | 61° |
| 2026-05-08 07:55 | 39.51322 | -8.85737 | 12384 ft | 228 kts | 61° |
| 2026-05-08 07:55 | 39.52084 | -8.83920 | 12648 ft | 231 kts | 60° |
| 2026-05-08 07:55 | 39.52854 | -8.82085 | 12916 ft | 233 kts | 60° |
| 2026-05-08 07:56 | 39.53629 | -8.80238 | 13178 ft | 234 kts | 60° |
| 2026-05-08 07:56 | 39.54399 | -8.78400 | 13444 ft | 235 kts | 59° |
| 2026-05-08 07:56 | 39.55184 | -8.76526 | 13712 ft | 237 kts | 59° |
| 2026-05-08 07:56 | 39.55972 | -8.74645 | 13952 ft | 238 kts | 59° |
| 2026-05-08 07:57 | 39.56763 | -8.72754 | 14192 ft | 239 kts | 59° |
| 2026-05-08 07:57 | 39.57557 | -8.70858 | 14433 ft | 240 kts | 61° |
| 2026-05-08 07:57 | 39.58358 | -8.68942 | 14676 ft | 242 kts | 61° |
| 2026-05-08 07:57 | 39.59160 | -8.67020 | 14921 ft | 243 kts | 61° |
| 2026-05-08 07:58 | 39.59966 | -8.65090 | 15168 ft | 244 kts | 60° |
| 2026-05-08 07:58 | 39.60776 | -8.63148 | 15419 ft | 246 kts | 60° |
| 2026-05-08 07:58 | 39.61591 | -8.61193 | 15667 ft | 247 kts | 60° |
| 2026-05-08 07:58 | 39.62409 | -8.59231 | 15923 ft | 248 kts | 60° |
| 2026-05-08 07:59 | 39.63220 | -8.57283 | 16174 ft | 249 kts | 60° |
| 2026-05-08 07:59 | 39.64046 | -8.55296 | 16434 ft | 251 kts | 60° |
| 2026-05-08 07:59 | 39.64881 | -8.53309 | 16697 ft | 252 kts | 58° |
| 2026-05-08 07:59 | 39.65879 | -8.51431 | 16961 ft | 251 kts | 48° |
| 2026-05-08 08:00 | 39.67081 | -8.49791 | 17222 ft | 250 kts | 38° |
| 2026-05-08 08:00 | 39.68455 | -8.48415 | 17495 ft | 249 kts | 28° |
| 2026-05-08 08:00 | 39.69968 | -8.47335 | 17764 ft | 247 kts | 18° |
| 2026-05-08 08:00 | 39.71553 | -8.46473 | 18028 ft | 248 kts | 18° |
| 2026-05-08 08:01 | 39.73138 | -8.45581 | 18303 ft | 249 kts | 19° |
| 2026-05-08 08:01 | 39.74726 | -8.44673 | 18542 ft | 251 kts | 19° |
| 2026-05-08 08:01 | 39.76328 | -8.43755 | 18780 ft | 252 kts | 19° |
| 2026-05-08 08:01 | 39.77939 | -8.42835 | 19022 ft | 254 kts | 19° |
| 2026-05-08 08:02 | 39.79545 | -8.41919 | 19258 ft | 255 kts | 19° |
| 2026-05-08 08:02 | 39.81172 | -8.40995 | 19499 ft | 257 kts | 19° |
| 2026-05-08 08:02 | 39.82812 | -8.40064 | 19736 ft | 258 kts | 20° |
| 2026-05-08 08:02 | 39.84463 | -8.39127 | 19877 ft | 264 kts | 20° |
| 2026-05-08 08:03 | 39.86173 | -8.38159 | 19901 ft | 271 kts | 20° |
| 2026-05-08 08:03 | 39.87897 | -8.37180 | 19910 ft | 270 kts | 20° |
| 2026-05-08 08:03 | 39.89614 | -8.36202 | 19910 ft | 269 kts | 20° |
| 2026-05-08 08:03 | 39.91322 | -8.35228 | 19915 ft | 269 kts | 20° |
| 2026-05-08 08:04 | 39.93028 | -8.34255 | 19914 ft | 269 kts | 21° |
| 2026-05-08 08:04 | 39.94745 | -8.33272 | 19915 ft | 270 kts | 21° |
| 2026-05-08 08:04 | 39.96467 | -8.32293 | 19923 ft | 271 kts | 22° |
| 2026-05-08 08:04 | 39.98194 | -8.31307 | 19916 ft | 271 kts | 22° |
| 2026-05-08 08:05 | 39.99921 | -8.30316 | 19916 ft | 271 kts | 22° |
| 2026-05-08 08:05 | 40.01650 | -8.29336 | 19918 ft | 271 kts | 22° |
| 2026-05-08 08:05 | 40.03375 | -8.28357 | 19920 ft | 271 kts | 22° |
| 2026-05-08 08:05 | 40.05102 | -8.27373 | 19919 ft | 272 kts | 22° |
| 2026-05-08 08:06 | 40.06828 | -8.26389 | 19911 ft | 271 kts | 22° |
| 2026-05-08 08:06 | 40.08557 | -8.25401 | 19914 ft | 271 kts | 22° |
| 2026-05-08 08:06 | 40.10285 | -8.24412 | 19913 ft | 271 kts | 22° |
| 2026-05-08 08:06 | 40.12011 | -8.23424 | 19913 ft | 272 kts | 22° |
| 2026-05-08 08:07 | 40.13743 | -8.22432 | 19916 ft | 272 kts | 22° |
| 2026-05-08 08:07 | 40.15471 | -8.21442 | 19915 ft | 272 kts | 22° |
| 2026-05-08 08:07 | 40.17203 | -8.20449 | 19916 ft | 272 kts | 22° |
| 2026-05-08 08:07 | 40.18903 | -8.19476 | 19911 ft | 272 kts | 23° |
| 2026-05-08 08:08 | 40.20632 | -8.18486 | 19916 ft | 272 kts | 23° |
| 2026-05-08 08:08 | 40.22369 | -8.17487 | 19913 ft | 273 kts | 23° |
| 2026-05-08 08:08 | 40.24103 | -8.16491 | 19910 ft | 272 kts | 23° |
| 2026-05-08 08:08 | 40.25837 | -8.15494 | 19913 ft | 272 kts | 23° |
| 2026-05-08 08:09 | 40.27573 | -8.14495 | 19909 ft | 273 kts | 23° |
| 2026-05-08 08:09 | 40.29286 | -8.13510 | 19910 ft | 273 kts | 23° |
| 2026-05-08 08:09 | 40.31025 | -8.12509 | 19908 ft | 272 kts | 23° |
| 2026-05-08 08:09 | 40.32760 | -8.11509 | 19910 ft | 272 kts | 23° |
| 2026-05-08 08:10 | 40.34495 | -8.10509 | 19912 ft | 273 kts | 23° |
| 2026-05-08 08:10 | 40.36231 | -8.09509 | 19912 ft | 273 kts | 23° |
| 2026-05-08 08:10 | 40.37964 | -8.08508 | 19909 ft | 273 kts | 23° |
| 2026-05-08 08:10 | 40.39698 | -8.07508 | 19910 ft | 273 kts | 23° |
| 2026-05-08 08:11 | 40.41436 | -8.06504 | 19909 ft | 273 kts | 23° |
| 2026-05-08 08:11 | 40.42588 | -8.05838 | 19909 ft | 273 kts | 23° |
| 2026-05-08 08:11 | 40.44325 | -8.04834 | 19910 ft | 273 kts | 23° |
| 2026-05-08 08:11 | 40.46063 | -8.03829 | 19911 ft | 273 kts | 23° |
| 2026-05-08 08:12 | 40.47798 | -8.02825 | 19912 ft | 273 kts | 23° |
| 2026-05-08 08:12 | 40.49538 | -8.01817 | 19909 ft | 273 kts | 23° |
| 2026-05-08 08:12 | 40.51276 | -8.00810 | 19910 ft | 273 kts | 23° |
| 2026-05-08 08:12 | 40.53011 | -7.99804 | 19909 ft | 272 kts | 23° |
| 2026-05-08 08:13 | 40.54745 | -7.98797 | 19909 ft | 272 kts | 23° |
| 2026-05-08 08:13 | 40.56478 | -7.97792 | 19909 ft | 272 kts | 23° |
| 2026-05-08 08:13 | 40.58211 | -7.96786 | 19911 ft | 272 kts | 23° |
| 2026-05-08 08:13 | 40.59946 | -7.95778 | 19910 ft | 273 kts | 23° |
| 2026-05-08 08:14 | 40.61660 | -7.94781 | 19913 ft | 273 kts | 23° |
| 2026-05-08 08:14 | 40.63397 | -7.93770 | 19918 ft | 273 kts | 23° |
| 2026-05-08 08:14 | 40.65132 | -7.92761 | 19910 ft | 272 kts | 25° |
| 2026-05-08 08:14 | 40.66863 | -7.91754 | 19909 ft | 272 kts | 25° |
| 2026-05-08 08:15 | 40.68594 | -7.90744 | 19908 ft | 272 kts | 25° |
| 2026-05-08 08:15 | 40.70324 | -7.89735 | 19910 ft | 272 kts | 25° |
| 2026-05-08 08:15 | 40.72078 | -7.88802 | 19910 ft | 272 kts | 20° |
| 2026-05-08 08:15 | 40.73884 | -7.88065 | 19907 ft | 272 kts | 14° |
| 2026-05-08 08:16 | 40.75721 | -7.87482 | 19910 ft | 271 kts | 13° |
| 2026-05-08 08:16 | 40.77553 | -7.86888 | 19911 ft | 271 kts | 14° |
| 2026-05-08 08:16 | 40.79382 | -7.86288 | 19912 ft | 271 kts | 14° |
| 2026-05-08 08:16 | 40.81213 | -7.85684 | 19911 ft | 271 kts | 14° |
| 2026-05-08 08:17 | 40.83043 | -7.85082 | 19906 ft | 271 kts | 14° |
| 2026-05-08 08:17 | 40.84879 | -7.84479 | 19742 ft | 276 kts | 14° |
| 2026-05-08 08:17 | 40.86743 | -7.83869 | 19383 ft | 275 kts | 14° |
| 2026-05-08 08:17 | 40.88571 | -7.83271 | 19026 ft | 273 kts | 14° |
| 2026-05-08 08:18 | 40.90411 | -7.82669 | 18662 ft | 272 kts | 14° |
| 2026-05-08 08:18 | 40.92242 | -7.82069 | 18309 ft | 270 kts | 15° |
| 2026-05-08 08:18 | 40.94065 | -7.81472 | 17914 ft | 269 kts | 15° |
| 2026-05-08 08:18 | 40.95878 | -7.80878 | 17514 ft | 268 kts | 14° |
| 2026-05-08 08:19 | 40.97694 | -7.80282 | 17108 ft | 268 kts | 15° |
| 2026-05-08 08:19 | 40.99507 | -7.79687 | 16713 ft | 268 kts | 15° |
| 2026-05-08 08:19 | 41.01317 | -7.79093 | 16312 ft | 267 kts | 15° |
| 2026-05-08 08:19 | 41.03120 | -7.78501 | 15925 ft | 267 kts | 14° |
| 2026-05-08 08:20 | 41.04922 | -7.77908 | 15541 ft | 266 kts | 14° |
| 2026-05-08 08:20 | 41.06716 | -7.77319 | 15167 ft | 266 kts | 14° |
| 2026-05-08 08:20 | 41.08509 | -7.76729 | 14795 ft | 265 kts | 14° |
| 2026-05-08 08:20 | 41.10300 | -7.76143 | 14419 ft | 265 kts | 16° |
| 2026-05-08 08:21 | 41.12090 | -7.75553 | 14054 ft | 265 kts | 16° |
| 2026-05-08 08:21 | 41.13879 | -7.74963 | 13692 ft | 265 kts | 17° |
| 2026-05-08 08:21 | 41.15664 | -7.74375 | 13294 ft | 264 kts | 17° |
| 2026-05-08 08:21 | 41.17447 | -7.73785 | 12880 ft | 263 kts | 16° |
| 2026-05-08 08:22 | 41.19198 | -7.73206 | 12508 ft | 261 kts | 16° |
| 2026-05-08 08:22 | 41.20950 | -7.72628 | 12176 ft | 259 kts | 16° |
| 2026-05-08 08:22 | 41.22688 | -7.72053 | 11847 ft | 257 kts | 15° |
| 2026-05-08 08:22 | 41.24416 | -7.71482 | 11519 ft | 256 kts | 15° |
| 2026-05-08 08:23 | 41.26134 | -7.70915 | 11182 ft | 254 kts | 15° |
| 2026-05-08 08:23 | 41.27850 | -7.70351 | 10849 ft | 253 kts | 15° |
| 2026-05-08 08:23 | 41.29547 | -7.69792 | 10530 ft | 251 kts | 15° |
| 2026-05-08 08:23 | 41.31230 | -7.69235 | 10214 ft | 250 kts | 15° |
| 2026-05-08 08:24 | 41.32916 | -7.68677 | 9893 ft | 249 kts | 15° |
| 2026-05-08 08:24 | 41.34583 | -7.68126 | 9562 ft | 247 kts | 14° |
| 2026-05-08 08:24 | 41.36245 | -7.67574 | 9214 ft | 246 kts | 14° |
| 2026-05-08 08:24 | 41.37894 | -7.67027 | 8875 ft | 244 kts | 14° |
| 2026-05-08 08:25 | 41.39532 | -7.66483 | 8539 ft | 243 kts | 14° |
| 2026-05-08 08:25 | 41.41160 | -7.65942 | 8199 ft | 240 kts | 14° |
| 2026-05-08 08:25 | 41.42770 | -7.65407 | 7860 ft | 238 kts | 14° |
| 2026-05-08 08:25 | 41.44365 | -7.64876 | 7529 ft | 236 kts | 14° |
| 2026-05-08 08:26 | 41.45947 | -7.64350 | 7202 ft | 234 kts | 14° |
| 2026-05-08 08:26 | 41.47519 | -7.63827 | 6880 ft | 232 kts | 14° |
| 2026-05-08 08:26 | 41.49070 | -7.63310 | 6566 ft | 230 kts | 14° |
| 2026-05-08 08:26 | 41.50595 | -7.62802 | 6253 ft | 228 kts | 13° |
| 2026-05-08 08:27 | 41.52125 | -7.62292 | 5906 ft | 225 kts | 13° |
| 2026-05-08 08:27 | 41.53637 | -7.61789 | 5575 ft | 223 kts | 14° |
| 2026-05-08 08:27 | 41.55136 | -7.61289 | 5261 ft | 221 kts | 14° |
| 2026-05-08 08:27 | 41.56623 | -7.60793 | 4952 ft | 220 kts | 14° |
| 2026-05-08 08:28 | 41.58102 | -7.60297 | 4637 ft | 219 kts | 14° |
| 2026-05-08 08:28 | 41.59548 | -7.59815 | 4300 ft | 207 kts | 14° |
| 2026-05-08 08:28 | 41.60911 | -7.59368 | 3949 ft | 196 kts | 14° |
| 2026-05-08 08:28 | 41.62205 | -7.58935 | 3603 ft | 187 kts | 14° |
| 2026-05-08 08:29 | 41.63408 | -7.58385 | 3252 ft | 179 kts | 24° |
| 2026-05-08 08:29 | 41.64524 | -7.57699 | 2895 ft | 173 kts | 26° |
| 2026-05-08 08:29 | 41.65586 | -7.57002 | 2607 ft | 165 kts | 28° |
| 2026-05-08 08:29 | 41.66615 | -7.56297 | 2496 ft | 167 kts | 28° |
| 2026-05-08 08:30 | 41.67485 | -7.55298 | 2445 ft | 166 kts | 52° |
| 2026-05-08 08:30 | 41.68185 | -7.54084 | 2419 ft | 164 kts | 53° |
| 2026-05-08 08:30 | 41.68991 | -7.51398 | 2395 ft | 140 kts | 78° |
| 2026-05-08 08:31 | 41.69170 | -7.50259 | 2293 ft | 113 kts | 77° |
| 2026-05-08 08:31 | 41.69329 | -7.49288 | 2166 ft | 103 kts | 75° |
| 2026-05-08 08:31 | 41.69572 | -7.48387 | 1995 ft | 104 kts | 70° |
| 2026-05-08 08:31 | 41.69867 | -7.47537 | 1931 ft | 100 kts | 57° |
| 2026-05-08 08:32 | 41.70242 | -7.46741 | 1841 ft | 101 kts | 58° |
| 2026-05-08 08:32 | 41.70697 | -7.46015 | 1695 ft | 102 kts | 37° |
| 2026-05-08 08:32 | 41.71332 | -7.45809 | 1387 ft | 92 kts | 355° |
| 2026-05-08 08:32 | 41.71912 | -7.46072 | 1186 ft | 83 kts | 334° |
| 2026-05-08 08:33 | 41.72337 | -7.46357 | 1184 ft | 57 kts | 333° |
| 2026-05-08 08:33 | 41.72533 | -7.46496 | 1183 ft | 7 kts | 319° |
| 2026-05-08 08:33 | 41.72528 | -7.46552 | 1182 ft | 7 kts | 246° |
| 2026-05-08 08:33 | 41.72533 | -7.46589 | 1180 ft | 0 kts | 3° |